首页
METAR-TAF:

METAR-TAF

机场 :

卡斯珀, 怀俄明州, 美国

纬度: 42-53-51N, 经度: 106-28-23W, 海拔: 1630米

当前天气观测

该预报发布于56分钟前的01:53 UTC
风速9节,风向西南
温度 23°C
湿度 31%
气压 1014 hPa
能見度: 16.1公里
天空无云

METAR: KCPR 270153Z 23009KT 10SM CLR 23/05 A2994 RMK AO2 SLP080 T02330050

时间: 20:49 (02:49 UTC)

预报

该预报发布于3小时和20分钟前的23:29 UTC
预报有效从27日的 00点(UTC)到 27日的 24点(UTC)
风速7节,风向
能見度: 10公里
少量云层高于12000英尺
从 27日的 0600点(UTC)
风速7节,风向
能見度: 10公里
天空无云
从 27日的 1200点(UTC)
风速5节,风向多变
能見度: 10公里
天空无云
从 27日的 1500点(UTC)
风速10节,风向南转西南,有时为16节阵风
能見度: 10公里
天空无云
从 27日的 1900点(UTC)
风速15节,风向西南,有时为25节阵风
能見度: 10公里
天空无云

TAF: KCPR 262329Z 2700/2724 10007KT P6SM FEW120 FM270600 35007KT P6SM SKC FM271200 VRB05KT P6SM SKC FM271500 21010G16KT P6SM SKC FM271900 22015G25KT P6SM SKC

超过4000个机场的气象观测和天气预报(METAR&TAF报告)。

可查询的气象台以黄色和红色小点在地图上表示。

将鼠标移到小点上方,可查看气象台名称。

然后点击查看天气观测和预报。

如需切换地图:点击带黑十字的绿色按钮放大地图;点击带横线的绿色按钮缩小地图;或者点击绿色箭头查看邻近地区的地图。


METAR-TAF: